createdAt,value
2022-12-17T00:01:14.031Z,4.70
2022-12-17T00:03:59.697Z,4.80
2022-12-17T00:06:45.031Z,4.80
2022-12-17T00:09:30.490Z,4.70
2022-12-17T00:12:16.043Z,4.70
2022-12-17T00:15:01.485Z,4.70
2022-12-17T00:17:47.099Z,4.60
2022-12-17T00:20:32.362Z,4.70
2022-12-17T00:23:19.290Z,4.50
2022-12-17T00:26:12.678Z,4.50
2022-12-17T00:28:58.286Z,4.50
2022-12-17T00:31:46.312Z,4.60
2022-12-17T00:34:31.803Z,4.70
2022-12-17T00:37:17.666Z,4.80
2022-12-17T00:40:02.773Z,4.70
2022-12-17T00:42:48.234Z,4.70
2022-12-17T00:45:33.680Z,4.60
2022-12-17T00:48:19.172Z,4.70
2022-12-17T00:51:04.619Z,4.90
2022-12-17T00:53:50.082Z,4.90
2022-12-17T00:56:35.699Z,5.00
2022-12-17T00:59:21.118Z,5.00
2022-12-17T01:02:07.801Z,5.10
2022-12-17T01:04:53.119Z,5.00
2022-12-17T01:07:39.510Z,5.10
2022-12-17T01:10:24.818Z,5.10
2022-12-17T01:13:10.515Z,5.30
2022-12-17T01:15:56.708Z,5.40
2022-12-17T01:18:42.065Z,5.50
2022-12-17T01:21:27.235Z,5.60
2022-12-17T01:24:12.835Z,5.70
2022-12-17T01:26:58.261Z,5.70
2022-12-17T01:29:43.768Z,5.70
2022-12-17T01:32:29.158Z,5.80
2022-12-17T01:35:14.623Z,5.90
2022-12-17T01:38:00.179Z,5.90
2022-12-17T01:40:45.659Z,5.90
2022-12-17T01:43:49.009Z,5.90
2022-12-17T01:46:34.160Z,5.90
2022-12-17T01:49:19.574Z,5.90
2022-12-17T01:52:04.982Z,6.00
2022-12-17T01:54:50.395Z,5.90
2022-12-17T01:57:36.121Z,5.80
2022-12-17T02:00:26.188Z,5.60
2022-12-17T02:03:12.050Z,5.60
2022-12-17T02:06:16.687Z,5.60
2022-12-17T02:09:13.310Z,5.70
2022-12-17T02:12:26.383Z,5.70
2022-12-17T02:15:29.398Z,5.70
2022-12-17T02:18:19.288Z,5.50
2022-12-17T02:21:10.739Z,5.30
2022-12-17T02:24:20.585Z,5.40
2022-12-17T02:27:13.086Z,5.40
2022-12-17T02:30:05.588Z,5.40
2022-12-17T02:32:53.111Z,5.30
2022-12-17T02:35:44.035Z,5.30
2022-12-17T02:38:40.766Z,5.40
2022-12-17T02:41:28.215Z,5.40
2022-12-17T02:44:14.883Z,5.50
2022-12-17T02:47:01.894Z,5.60
2022-12-17T02:49:47.363Z,5.50
2022-12-17T02:52:37.250Z,5.50
2022-12-17T02:55:23.644Z,5.50
2022-12-17T02:58:08.979Z,5.60
2022-12-17T03:00:54.383Z,5.40
2022-12-17T03:03:39.922Z,5.40
2022-12-17T03:06:25.561Z,5.50
2022-12-17T03:09:11.147Z,5.50
2022-12-17T03:11:56.674Z,5.40
2022-12-17T03:14:42.146Z,5.50
2022-12-17T03:17:27.593Z,5.60
2022-12-17T03:20:12.879Z,5.60
2022-12-17T03:22:58.339Z,5.70
2022-12-17T03:25:43.679Z,5.70
2022-12-17T03:28:30.498Z,5.70
2022-12-17T03:31:17.671Z,5.70
2022-12-17T03:34:03.639Z,5.70
2022-12-17T03:36:49.187Z,5.70
2022-12-17T03:39:34.627Z,5.80
2022-12-17T03:42:20.180Z,5.70
2022-12-17T03:45:05.692Z,5.80
2022-12-17T03:47:50.987Z,5.80
2022-12-17T03:50:36.526Z,5.80
2022-12-17T03:53:23.975Z,5.60
2022-12-17T03:56:09.382Z,5.50
2022-12-17T03:58:54.757Z,5.30
2022-12-17T04:01:40.526Z,5.30
2022-12-17T04:04:26.021Z,5.30
2022-12-17T04:07:11.678Z,5.20
2022-12-17T04:09:57.129Z,5.20
2022-12-17T04:12:42.933Z,5.20
2022-12-17T04:15:28.451Z,5.30
2022-12-17T04:18:14.249Z,5.50
2022-12-17T04:20:59.467Z,5.50
2022-12-17T04:23:44.797Z,5.60
2022-12-17T04:26:30.215Z,5.60
2022-12-17T04:29:15.833Z,5.70
2022-12-17T04:32:01.181Z,5.70
2022-12-17T04:34:46.646Z,5.80
2022-12-17T04:37:32.028Z,5.80
2022-12-17T04:40:17.261Z,5.80
2022-12-17T04:43:02.542Z,5.80
2022-12-17T04:45:48.247Z,5.80
2022-12-17T04:48:33.639Z,5.70
2022-12-17T04:51:19.154Z,5.70
2022-12-17T04:54:04.604Z,5.70
2022-12-17T04:56:50.063Z,5.70
2022-12-17T04:59:43.215Z,5.70
2022-12-17T05:02:29.118Z,5.70
2022-12-17T05:05:14.404Z,5.70
2022-12-17T05:07:59.914Z,5.80
2022-12-17T05:10:45.218Z,5.70
2022-12-17T05:13:30.999Z,5.70
2022-12-17T05:16:16.600Z,5.60
2022-12-17T05:19:02.088Z,5.70
2022-12-17T05:21:47.430Z,5.70
2022-12-17T05:24:32.965Z,5.70
2022-12-17T05:27:18.366Z,5.80
2022-12-17T05:30:03.761Z,5.70
2022-12-17T05:32:49.025Z,5.50
2022-12-17T05:35:34.391Z,5.40
2022-12-17T05:38:24.227Z,5.40
2022-12-17T05:41:10.061Z,5.40
2022-12-17T05:43:55.514Z,5.50
2022-12-17T05:46:40.926Z,5.40
2022-12-17T05:49:26.413Z,5.30
2022-12-17T05:52:12.172Z,5.30
2022-12-17T05:54:57.530Z,5.40
2022-12-17T05:57:43.112Z,5.40
2022-12-17T06:00:29.445Z,5.40
2022-12-17T06:03:19.040Z,5.40
2022-12-17T06:06:04.245Z,5.50
2022-12-17T06:08:49.642Z,5.60
2022-12-17T06:11:34.842Z,5.60
2022-12-17T06:14:20.366Z,5.70
2022-12-17T06:17:05.742Z,5.70
2022-12-17T06:19:51.110Z,5.70
2022-12-17T06:22:36.497Z,5.80
2022-12-17T06:25:22.248Z,5.80
2022-12-17T06:28:07.702Z,5.80
2022-12-17T06:30:53.244Z,5.80
2022-12-17T06:33:39.149Z,5.80
2022-12-17T06:36:24.410Z,5.70
2022-12-17T06:39:09.901Z,5.70
2022-12-17T06:42:02.037Z,5.70
2022-12-17T06:44:47.514Z,5.70
2022-12-17T06:47:32.887Z,5.60
2022-12-17T06:50:18.323Z,5.70
2022-12-17T06:53:03.728Z,5.70
2022-12-17T06:55:49.159Z,5.80
2022-12-17T06:58:34.614Z,5.80
2022-12-17T07:01:20.080Z,5.70
2022-12-17T07:04:05.519Z,5.50
2022-12-17T07:06:50.801Z,5.60
2022-12-17T07:09:36.354Z,5.70
2022-12-17T07:12:21.857Z,5.80
2022-12-17T07:15:07.248Z,5.80
2022-12-17T07:17:52.922Z,5.70
2022-12-17T07:20:38.247Z,5.60
2022-12-17T07:23:24.078Z,5.70
2022-12-17T07:26:09.558Z,5.60
2022-12-17T07:28:55.207Z,5.60
2022-12-17T07:31:40.856Z,5.60
2022-12-17T07:34:26.041Z,5.70
2022-12-17T07:37:13.935Z,5.70
2022-12-17T07:40:02.609Z,5.80
2022-12-17T07:42:47.705Z,5.90
2022-12-17T07:45:33.342Z,6.10
2022-12-17T07:48:19.009Z,6.10
2022-12-17T07:51:10.569Z,6.00
2022-12-17T07:53:55.967Z,6.00
2022-12-17T07:56:41.381Z,6.00
2022-12-17T07:59:26.681Z,5.80
2022-12-17T08:02:12.438Z,5.90
2022-12-17T08:04:58.094Z,5.80
2022-12-17T08:07:44.190Z,5.70
2022-12-17T08:10:29.831Z,5.80
2022-12-17T08:13:20.804Z,5.90
2022-12-17T08:16:07.348Z,5.90
2022-12-17T08:18:52.791Z,6.00
2022-12-17T08:21:38.343Z,5.90
2022-12-17T08:24:23.876Z,6.00
2022-12-17T08:27:09.660Z,5.60
2022-12-17T08:29:55.118Z,5.20
2022-12-17T08:32:41.119Z,5.10
2022-12-17T08:35:26.696Z,5.00
2022-12-17T08:38:12.435Z,4.80
2022-12-17T08:41:08.181Z,4.60
2022-12-17T08:43:53.594Z,4.60
2022-12-17T08:46:39.106Z,4.60
2022-12-17T08:49:24.709Z,4.60
2022-12-17T08:52:10.109Z,4.70
2022-12-17T08:54:55.820Z,4.70
2022-12-17T08:57:41.368Z,4.80
2022-12-17T09:00:27.382Z,5.00
2022-12-17T09:03:30.515Z,5.00
2022-12-17T09:06:15.954Z,5.00
2022-12-17T09:09:01.325Z,4.90
2022-12-17T09:11:46.775Z,5.20
2022-12-17T09:14:32.278Z,5.10
2022-12-17T09:17:17.693Z,5.30
2022-12-17T09:20:03.291Z,5.30
2022-12-17T09:22:48.737Z,5.50
2022-12-17T09:25:34.300Z,5.70
2022-12-17T09:28:22.715Z,5.90
2022-12-17T09:31:08.102Z,5.90
2022-12-17T09:33:53.742Z,5.90
2022-12-17T09:36:39.350Z,5.80
2022-12-17T09:39:24.892Z,5.60
2022-12-17T09:42:35.259Z,5.70
2022-12-17T09:45:42.425Z,5.80
2022-12-17T09:48:40.482Z,6.00
2022-12-17T09:51:41.701Z,6.10
2022-12-17T09:54:38.705Z,6.10
2022-12-17T09:57:27.671Z,6.10
2022-12-17T10:00:13.036Z,6.20
2022-12-17T10:02:58.700Z,6.10
2022-12-17T10:05:48.183Z,5.90
2022-12-17T10:08:37.248Z,5.90
2022-12-17T10:11:39.795Z,6.10
2022-12-17T10:14:36.986Z,6.40
2022-12-17T10:17:22.510Z,6.40
2022-12-17T10:20:13.560Z,6.30
2022-12-17T10:23:04.176Z,6.20
2022-12-17T10:25:49.865Z,6.20
2022-12-17T10:28:41.218Z,6.40
2022-12-17T10:31:35.308Z,6.60
2022-12-17T10:34:20.487Z,6.80
2022-12-17T10:37:09.018Z,7.00
2022-12-17T10:39:54.902Z,7.20
2022-12-17T10:42:56.392Z,7.30
2022-12-17T10:45:50.437Z,7.30
2022-12-17T10:48:46.964Z,7.60
2022-12-17T10:51:52.255Z,7.90
2022-12-17T10:54:49.960Z,8.10
2022-12-17T10:57:54.854Z,8.40
2022-12-17T11:00:47.366Z,8.60
2022-12-17T11:03:48.593Z,8.90
2022-12-17T11:06:48.400Z,8.90
2022-12-17T11:09:39.883Z,9.20
2022-12-17T11:12:31.009Z,9.50
2022-12-17T11:15:22.723Z,9.70
2022-12-17T11:18:11.582Z,9.50
2022-12-17T11:21:21.510Z,9.50
2022-12-17T11:24:09.618Z,9.30
2022-12-17T11:26:56.568Z,9.10
2022-12-17T11:29:42.146Z,9.00
2022-12-17T11:32:45.760Z,9.00
2022-12-17T11:35:35.903Z,8.70
2022-12-17T11:38:42.170Z,8.80
2022-12-17T11:41:53.909Z,9.50
2022-12-17T11:45:03.344Z,11.70
2022-12-17T11:48:17.479Z,13.50
2022-12-17T11:51:16.694Z,14.60
2022-12-17T11:54:46.145Z,16.40
2022-12-17T11:57:42.656Z,18.40
2022-12-17T12:00:39.062Z,18.70
2022-12-17T12:03:27.339Z,17.20
2022-12-17T12:06:18.128Z,16.00
2022-12-17T12:09:35.711Z,15.20
2022-12-17T12:12:30.878Z,15.10
2022-12-17T12:15:31.488Z,15.00
2022-12-17T12:18:27.044Z,15.70
2022-12-17T12:21:41.905Z,16.30
2022-12-17T12:24:46.102Z,16.10
2022-12-17T12:27:43.770Z,15.80
2022-12-17T12:30:34.764Z,14.20
2022-12-17T12:33:40.922Z,12.40
2022-12-17T12:36:30.936Z,11.20
2022-12-17T12:39:19.841Z,10.50
2022-12-17T12:42:34.419Z,10.20
2022-12-17T12:46:01.641Z,9.80
2022-12-17T12:49:13.167Z,9.40
2022-12-17T12:51:58.497Z,9.20
2022-12-17T12:55:07.246Z,9.00
2022-12-17T12:58:00.306Z,8.80
2022-12-17T13:00:57.524Z,8.80
2022-12-17T13:03:48.377Z,8.60
2022-12-17T13:06:46.039Z,8.60
2022-12-17T13:09:15.589Z,8.40
2022-12-17T13:11:53.562Z,8.40
2022-12-17T13:14:24.335Z,8.30
2022-12-17T13:16:55.752Z,8.20
2022-12-17T13:19:31.287Z,8.10
2022-12-17T13:22:23.983Z,8.20
2022-12-17T13:24:53.764Z,8.30
2022-12-17T13:27:31.933Z,8.30
2022-12-17T13:30:11.878Z,8.10
2022-12-17T13:32:46.060Z,8.20
2022-12-17T13:35:43.918Z,8.10
2022-12-17T13:38:31.138Z,7.90
2022-12-17T13:41:16.214Z,7.60
2022-12-17T13:43:53.269Z,7.40
2022-12-17T13:46:21.088Z,7.40
2022-12-17T13:48:54.013Z,7.50
2022-12-17T13:51:22.874Z,7.50
2022-12-17T13:53:57.727Z,7.40
2022-12-17T13:56:28.238Z,7.50
2022-12-17T13:58:56.864Z,7.20
2022-12-17T14:01:26.288Z,7.10
2022-12-17T14:04:08.211Z,7.10
2022-12-17T14:06:38.787Z,7.10
2022-12-17T14:09:06.137Z,7.10
2022-12-17T14:11:52.501Z,7.00
2022-12-17T14:14:31.753Z,7.10
2022-12-17T14:16:59.107Z,7.10
2022-12-17T14:19:26.538Z,7.10
2022-12-17T14:21:54.123Z,7.10
2022-12-17T14:24:26.952Z,7.10
2022-12-17T14:26:56.382Z,7.10
2022-12-17T14:29:29.568Z,7.20
2022-12-17T14:31:59.252Z,7.20
2022-12-17T14:34:26.142Z,7.20
2022-12-17T14:36:56.346Z,7.30
2022-12-17T14:39:33.149Z,7.20
2022-12-17T14:42:26.035Z,7.10
2022-12-17T14:44:57.619Z,7.20
2022-12-17T14:47:29.838Z,7.20
2022-12-17T14:50:05.615Z,7.10
2022-12-17T14:52:49.151Z,7.10
2022-12-17T14:55:22.574Z,7.00
2022-12-17T14:57:51.543Z,7.00
2022-12-17T15:00:18.814Z,7.00
2022-12-17T15:02:54.387Z,6.90
2022-12-17T15:05:21.353Z,7.00
2022-12-17T15:07:48.046Z,6.80
2022-12-17T15:10:18.971Z,6.80
2022-12-17T15:12:46.037Z,6.80
2022-12-17T15:15:15.281Z,6.90
2022-12-17T15:17:42.522Z,6.80
2022-12-17T15:20:20.762Z,6.70
2022-12-17T15:22:48.342Z,6.60
2022-12-17T15:25:17.989Z,6.50
2022-12-17T15:27:45.426Z,6.60
2022-12-17T15:30:16.812Z,6.70
2022-12-17T15:32:44.514Z,6.60
2022-12-17T15:35:12.412Z,6.60
2022-12-17T15:37:39.498Z,6.70
2022-12-17T15:40:07.882Z,6.80
2022-12-17T15:42:53.200Z,6.70
2022-12-17T15:45:19.913Z,6.70
2022-12-17T15:47:46.663Z,6.50
2022-12-17T15:50:13.418Z,6.50
2022-12-17T15:52:40.067Z,6.60
2022-12-17T15:55:07.090Z,6.80
2022-12-17T15:57:34.134Z,6.70
2022-12-17T16:00:00.860Z,6.60
2022-12-17T16:02:27.728Z,6.70
2022-12-17T16:04:54.802Z,6.50
2022-12-17T16:07:21.555Z,6.50
2022-12-17T16:09:48.287Z,6.40
2022-12-17T16:12:15.013Z,6.50
2022-12-17T16:14:41.901Z,6.50
2022-12-17T16:17:08.610Z,6.50
2022-12-17T16:19:35.381Z,6.60
2022-12-17T16:22:02.149Z,6.60
2022-12-17T16:24:28.920Z,6.70
2022-12-17T16:26:59.401Z,6.70
2022-12-17T16:29:29.351Z,6.60
2022-12-17T16:31:56.065Z,6.70
2022-12-17T16:34:22.856Z,6.80
2022-12-17T16:36:49.689Z,6.70
2022-12-17T16:39:18.898Z,6.70
2022-12-17T16:41:46.228Z,6.80
2022-12-17T16:44:13.617Z,6.80
2022-12-17T16:46:42.702Z,6.90
2022-12-17T16:49:27.792Z,7.00
2022-12-17T16:51:55.694Z,6.90
2022-12-17T16:54:26.470Z,6.90
2022-12-17T16:56:55.454Z,7.00
2022-12-17T16:59:23.534Z,6.90
2022-12-17T17:01:52.022Z,7.00
2022-12-17T17:04:21.817Z,6.90
2022-12-17T17:06:54.153Z,6.90
2022-12-17T17:09:22.490Z,7.00
2022-12-17T17:11:51.743Z,7.00
2022-12-17T17:14:19.051Z,7.00
2022-12-17T17:16:45.921Z,7.10
2022-12-17T17:19:12.753Z,7.10
2022-12-17T17:21:42.138Z,7.10
2022-12-17T17:24:20.963Z,7.20
2022-12-17T17:26:49.578Z,7.30
2022-12-17T17:29:16.310Z,7.30
2022-12-17T17:34:29.834Z,7.30
2022-12-17T17:36:56.533Z,7.40
2022-12-17T17:39:23.231Z,7.40
2022-12-17T17:41:50.207Z,7.50
2022-12-17T17:44:16.948Z,7.50
2022-12-17T17:46:44.002Z,7.50
2022-12-17T17:49:11.905Z,7.60
2022-12-17T17:54:28.763Z,7.50
2022-12-17T17:56:55.586Z,7.60
2022-12-17T17:59:29.193Z,7.60
2022-12-17T18:02:00.217Z,7.70
2022-12-17T18:04:27.948Z,7.70
2022-12-17T18:09:41.543Z,7.70
2022-12-17T18:12:26.956Z,7.70
2022-12-17T18:17:40.598Z,7.70
2022-12-17T18:20:09.556Z,7.80
2022-12-17T18:22:36.355Z,7.80
2022-12-17T18:25:03.178Z,7.80
2022-12-17T18:27:29.899Z,7.80
2022-12-17T18:29:56.619Z,7.90
2022-12-17T18:32:23.326Z,7.80
2022-12-17T18:34:50.303Z,7.90
2022-12-17T18:37:17.135Z,7.90
2022-12-17T18:39:43.879Z,7.90
2022-12-17T18:42:29.313Z,8.00
2022-12-17T18:44:56.138Z,7.90
2022-12-17T18:47:23.043Z,7.90
2022-12-17T18:49:50.231Z,7.90
2022-12-17T18:52:17.568Z,8.00
2022-12-17T18:54:45.371Z,8.00
2022-12-17T18:57:13.259Z,8.00
2022-12-17T18:59:40.970Z,8.00
2022-12-17T19:02:15.064Z,8.10
2022-12-17T19:04:42.050Z,8.00
2022-12-17T19:07:08.900Z,8.00
2022-12-17T19:09:36.294Z,8.10
2022-12-17T19:12:05.094Z,8.10
2022-12-17T19:14:31.888Z,8.00
2022-12-17T19:16:59.048Z,8.10
2022-12-17T19:19:26.560Z,8.10
2022-12-17T19:21:55.169Z,8.20
2022-12-17T19:24:23.347Z,8.20
2022-12-17T19:26:51.370Z,8.20
2022-12-17T19:29:20.260Z,8.20
2022-12-17T19:31:47.987Z,8.20
2022-12-17T19:34:17.075Z,8.30
2022-12-17T19:36:44.402Z,8.20
2022-12-17T19:39:13.885Z,8.10
2022-12-17T19:41:40.825Z,8.10
2022-12-17T19:44:12.356Z,8.20
2022-12-17T19:46:39.379Z,8.30
2022-12-17T19:49:06.162Z,8.30
2022-12-17T19:51:33.574Z,8.30
2022-12-17T19:54:06.489Z,8.30
2022-12-17T19:56:35.534Z,8.40
2022-12-17T19:59:07.043Z,8.40
2022-12-17T20:01:36.914Z,8.40
2022-12-17T20:04:04.609Z,8.40
2022-12-17T20:06:33.501Z,8.40
2022-12-17T20:09:01.613Z,8.40
2022-12-17T20:11:34.747Z,8.50
2022-12-17T20:14:12.174Z,8.50
2022-12-17T20:16:42.507Z,8.50
2022-12-17T20:19:15.902Z,8.50
2022-12-17T20:21:42.858Z,8.50
2022-12-17T20:24:10.695Z,8.50
2022-12-17T20:26:37.556Z,8.50
2022-12-17T20:29:05.039Z,8.50
2022-12-17T20:31:32.623Z,8.50
2022-12-17T20:34:05.659Z,8.50
2022-12-17T20:36:33.072Z,8.50
2022-12-17T20:39:00.545Z,8.50
2022-12-17T20:41:29.540Z,8.50
2022-12-17T20:43:57.316Z,8.50
2022-12-17T20:46:25.626Z,8.50
2022-12-17T20:48:52.505Z,8.50
2022-12-17T20:51:25.932Z,8.50
2022-12-17T20:53:53.944Z,8.50
2022-12-17T20:56:24.742Z,8.40
2022-12-17T20:59:00.370Z,8.40
2022-12-17T21:01:28.062Z,8.40
2022-12-17T21:03:56.654Z,8.50
2022-12-17T21:06:43.961Z,8.50
2022-12-17T21:09:11.812Z,8.40
2022-12-17T21:11:40.095Z,8.40
2022-12-17T21:14:10.137Z,8.50
2022-12-17T21:16:38.666Z,8.40
2022-12-17T21:19:07.582Z,8.40
2022-12-17T21:21:37.195Z,8.50
2022-12-17T21:24:04.742Z,8.50
2022-12-17T21:26:40.433Z,8.50
2022-12-17T21:29:08.475Z,8.50
2022-12-17T21:31:44.830Z,8.50
2022-12-17T21:34:14.608Z,8.50
2022-12-17T21:36:41.806Z,8.50
2022-12-17T21:39:09.961Z,8.50
2022-12-17T21:41:39.283Z,8.50
2022-12-17T21:44:13.090Z,8.50
2022-12-17T21:46:40.938Z,8.60
2022-12-17T21:49:07.724Z,8.60
2022-12-17T21:51:35.506Z,8.60
2022-12-17T21:54:08.647Z,8.50
2022-12-17T21:56:36.655Z,8.50
2022-12-17T21:59:03.684Z,8.50
2022-12-17T22:01:32.995Z,8.60
2022-12-17T22:04:02.587Z,8.50
2022-12-17T22:06:35.518Z,8.50
2022-12-17T22:09:18.249Z,8.50
2022-12-17T22:12:17.028Z,8.50
2022-12-17T22:14:44.085Z,8.50
2022-12-17T22:17:10.814Z,8.50
2022-12-17T22:19:37.580Z,8.50
2022-12-17T22:22:04.429Z,8.50
2022-12-17T22:24:36.539Z,8.50
2022-12-17T22:27:04.280Z,8.50
2022-12-17T22:29:54.827Z,8.50
2022-12-17T22:32:40.178Z,8.40
2022-12-17T22:36:40.509Z,8.50
2022-12-17T22:42:41.394Z,8.40
2022-12-17T22:44:44.735Z,8.40
2022-12-17T22:44:49.154Z,8.40
2022-12-17T22:46:19.467Z,8.40
2022-12-17T22:48:47.089Z,8.40
2022-12-17T22:51:17.838Z,8.40
2022-12-17T22:53:52.621Z,8.40
2022-12-17T22:56:36.193Z,8.50
2022-12-17T22:59:07.810Z,8.50
2022-12-17T23:01:35.219Z,8.50
2022-12-17T23:04:03.632Z,8.50
2022-12-17T23:06:30.520Z,8.50
2022-12-17T23:08:57.538Z,8.50
2022-12-17T23:11:26.313Z,8.50
2022-12-17T23:13:53.921Z,8.50
2022-12-17T23:16:21.494Z,8.60
2022-12-17T23:18:51.397Z,8.60
2022-12-17T23:21:19.998Z,8.60
2022-12-17T23:23:46.841Z,8.60
2022-12-17T23:26:17.241Z,8.60
2022-12-17T23:28:45.011Z,8.60
2022-12-17T23:31:18.596Z,8.60
2022-12-17T23:33:46.635Z,8.60
2022-12-17T23:36:16.607Z,8.60
2022-12-17T23:38:43.807Z,8.60
2022-12-17T23:41:18.749Z,8.60
2022-12-17T23:43:47.916Z,8.50
2022-12-17T23:46:15.215Z,8.50
2022-12-17T23:48:45.563Z,8.50
2022-12-17T23:51:14.812Z,8.50
2022-12-17T23:53:42.895Z,8.50
2022-12-17T23:56:14.486Z,8.50
2022-12-17T23:58:42.727Z,8.50
